Time,TemperatureF,DewpointF,PressureIn,WindDirection,WindDirectionDegrees,WindSpeedMPH,WindSpeedGustMPH,Humidity,HourlyPrecipIn,Conditions,Clouds,dailyrainin,SoftwareType,DateUTC
2013-03-27 00:28:00,42.7,35.0,30.07,WNW,302,6.0,8.0,74,0.00,,,0.00,weatherlink.com 1.10,2013-03-27 04:28:00,
2013-03-27 00:43:00,42.6,35.0,30.07,WNW,298,7.0,9.0,75,0.00,,,0.00,weatherlink.com 1.10,2013-03-27 04:43:00,
2013-03-27 00:58:00,42.3,35.0,30.07,WNW,302,7.0,9.0,74,0.00,,,0.00,weatherlink.com 1.10,2013-03-27 04:58:00,
2013-03-27 01:13:00,41.7,35.0,30.08,West,280,5.0,9.0,76,0.00,,,0.00,weatherlink.com 1.10,2013-03-27 05:13:00,
2013-03-27 01:28:00,41.1,34.0,30.08,WNW,294,5.0,9.0,77,0.00,,,0.00,weatherlink.com 1.10,2013-03-27 05:28:00,
2013-03-27 01:43:00,40.6,34.0,30.09,WNW,303,5.0,10.0,77,0.00,,,0.00,weatherlink.com 1.10,2013-03-27 05:43:00,
2013-03-27 01:58:00,40.1,33.0,30.08,WNW,298,6.0,9.0,77,0.00,,,0.00,weatherlink.com 1.10,2013-03-27 05:58:00,
2013-03-27 02:13:00,39.7,33.0,30.09,NW,304,8.0,9.0,77,0.00,,,0.00,weatherlink.com 1.10,2013-03-27 06:13:00,
2013-03-27 02:28:00,39.3,33.0,30.08,NW,309,8.0,8.0,78,0.00,,,0.00,weatherlink.com 1.10,2013-03-27 06:28:00,
2013-03-27 02:43:00,39.2,33.0,30.08,NW,309,6.0,10.0,78,0.00,,,0.00,weatherlink.com 1.10,2013-03-27 06:43:00,
2013-03-27 02:58:00,39.1,33.0,30.08,NW,313,4.0,9.0,78,0.00,,,0.00,weatherlink.com 1.10,2013-03-27 06:58:00,
2013-03-27 03:13:00,38.9,33.0,30.07,NW,304,5.0,7.0,78,0.00,,,0.00,weatherlink.com 1.10,2013-03-27 07:13:00,
2013-03-27 03:28:00,38.4,32.0,30.07,WNW,299,5.0,7.0,79,0.00,,,0.00,weatherlink.com 1.10,2013-03-27 07:28:00,
2013-03-27 03:43:00,37.9,32.0,30.08,WNW,300,6.0,7.0,79,0.00,,,0.00,weatherlink.com 1.10,2013-03-27 07:43:00,
2013-03-27 03:58:00,37.6,32.0,30.08,NW,306,5.0,8.0,80,0.00,,,0.00,weatherlink.com 1.10,2013-03-27 07:58:00,
2013-03-27 04:13:00,37.3,32.0,30.08,NW,304,5.0,8.0,80,0.00,,,0.00,weatherlink.com 1.10,2013-03-27 08:13:00,
2013-03-27 04:28:00,37.1,31.0,30.09,WNW,303,5.0,8.0,80,0.00,,,0.00,weatherlink.com 1.10,2013-03-27 08:28:00,
2013-03-27 04:43:00,36.8,32.0,30.09,WNW,302,6.0,6.0,81,0.00,,,0.00,weatherlink.com 1.10,2013-03-27 08:43:00,
2013-03-27 04:58:00,36.5,31.0,30.09,NW,308,4.0,8.0,81,0.00,,,0.00,weatherlink.com 1.10,2013-03-27 08:58:00,
2013-03-27 05:15:00,36.4,31.0,30.09,WNW,299,6.0,9.0,81,0.00,,,0.00,weatherlink.com 1.10,2013-03-27 09:15:00,
2013-03-27 05:28:00,36.1,31.0,30.09,WNW,302,6.0,9.0,81,0.00,,,0.00,weatherlink.com 1.10,2013-03-27 09:28:00,
2013-03-27 05:43:00,35.7,31.0,30.09,NW,308,6.0,8.0,82,0.00,,,0.00,weatherlink.com 1.10,2013-03-27 09:43:00,
2013-03-27 05:58:00,35.5,31.0,30.10,WNW,301,5.0,8.0,82,0.00,,,0.00,weatherlink.com 1.10,2013-03-27 09:58:00,
2013-03-27 06:13:00,35.2,31.0,30.10,NW,317,4.0,8.0,83,0.00,,,0.00,weatherlink.com 1.10,2013-03-27 10:13:00,
2013-03-27 06:28:00,34.9,31.0,30.11,NW,306,2.0,8.0,84,0.00,,,0.00,weatherlink.com 1.10,2013-03-27 10:28:00,
2013-03-27 06:43:00,34.7,30.0,30.11,WNW,300,7.0,9.0,84,0.00,,,0.00,weatherlink.com 1.10,2013-03-27 10:43:00,
2013-03-27 06:58:00,34.6,30.0,30.12,NW,311,6.0,8.0,84,0.00,,,0.00,weatherlink.com 1.10,2013-03-27 10:58:00,
2013-03-27 07:13:00,34.5,30.0,30.12,NW,311,3.0,9.0,84,0.00,,,0.00,weatherlink.com 1.10,2013-03-27 11:13:00,
2013-03-27 07:30:00,34.5,30.0,30.12,WNW,302,6.0,8.0,84,0.00,,,0.00,weatherlink.com 1.10,2013-03-27 11:30:00,
2013-03-27 07:43:00,35.0,31.0,30.13,NW,304,5.0,9.0,85,0.00,,,0.00,weatherlink.com 1.10,2013-03-27 11:43:00,
2013-03-27 07:58:00,35.7,31.0,30.13,NW,306,9.0,14.0,83,0.00,,,0.00,weatherlink.com 1.10,2013-03-27 11:58:00,
2013-03-27 08:14:00,37.1,32.0,30.14,NW,306,10.0,10.0,82,0.00,,,0.00,weatherlink.com 1.10,2013-03-27 12:14:00,
2013-03-27 08:29:00,38.7,33.0,30.15,NW,315,4.0,13.0,79,0.00,,,0.00,weatherlink.com 1.10,2013-03-27 12:29:00,
2013-03-27 08:59:00,42.2,34.0,30.15,NNW,328,4.0,14.0,72,0.00,,,0.00,weatherlink.com 1.10,2013-03-27 12:59:00,
2013-03-27 09:14:00,43.5,34.0,30.16,NNW,343,9.0,15.0,69,0.00,,,0.00,weatherlink.com 1.10,2013-03-27 13:14:00,
2013-03-27 09:29:00,45.0,35.0,30.15,NNW,341,12.0,15.0,67,0.00,,,0.00,weatherlink.com 1.10,2013-03-27 13:29:00,
2013-03-27 09:44:00,45.6,34.0,30.15,NW,321,4.0,17.0,65,0.00,,,0.00,weatherlink.com 1.10,2013-03-27 13:44:00,
2013-03-27 09:59:00,46.9,35.0,30.16,NNW,342,8.0,15.0,64,0.00,,,0.00,weatherlink.com 1.10,2013-03-27 13:59:00,
2013-03-27 10:14:00,47.1,35.0,30.16,North,355,6.0,17.0,64,0.00,,,0.00,weatherlink.com 1.10,2013-03-27 14:14:00,
2013-03-27 10:29:00,49.5,36.0,30.16,NNW,340,7.0,13.0,60,0.00,,,0.00,weatherlink.com 1.10,2013-03-27 14:29:00,
2013-03-27 10:44:00,50.3,36.0,30.16,NW,307,10.0,16.0,59,0.00,,,0.00,weatherlink.com 1.10,2013-03-27 14:44:00,
2013-03-27 10:59:00,51.0,35.0,30.16,North,355,8.0,14.0,55,0.00,,,0.00,weatherlink.com 1.10,2013-03-27 14:59:00,
2013-03-27 11:14:00,51.5,35.0,30.15,NW,322,7.0,14.0,53,0.00,,,0.00,weatherlink.com 1.10,2013-03-27 15:14:00,
2013-03-27 11:29:00,52.1,34.0,30.15,NNW,342,6.0,15.0,51,0.00,,,0.00,weatherlink.com 1.10,2013-03-27 15:29:00,
2013-03-27 11:44:00,51.7,33.0,30.15,North,5,10.0,14.0,49,0.00,,,0.00,weatherlink.com 1.10,2013-03-27 15:44:00,
2013-03-27 11:59:00,53.0,33.0,30.15,NW,319,6.0,17.0,46,0.00,,,0.00,weatherlink.com 1.10,2013-03-27 15:59:00,
2013-03-27 12:14:00,53.5,34.0,30.15,North,360,5.0,15.0,47,0.00,,,0.00,weatherlink.com 1.10,2013-03-27 16:14:00,
2013-03-27 12:29:00,53.1,34.0,30.14,North,360,4.0,15.0,48,0.00,,,0.00,weatherlink.com 1.10,2013-03-27 16:29:00,
2013-03-27 12:44:00,54.4,35.0,30.13,WNW,293,4.0,16.0,49,0.00,,,0.00,weatherlink.com 1.10,2013-03-27 16:44:00,
2013-03-27 12:59:00,54.2,33.0,30.13,NNW,329,3.0,16.0,44,0.00,,,0.00,weatherlink.com 1.10,2013-03-27 16:59:00,
2013-03-27 13:14:00,55.0,32.0,30.13,WNW,298,10.0,17.0,42,0.00,,,0.00,weatherlink.com 1.10,2013-03-27 17:14:00,
2013-03-27 13:29:00,56.7,32.0,30.13,WNW,298,8.0,16.0,40,0.00,,,0.00,weatherlink.com 1.10,2013-03-27 17:29:00,
2013-03-27 13:44:00,56.9,33.0,30.12,WNW,282,10.0,18.0,40,0.00,,,0.00,weatherlink.com 1.10,2013-03-27 17:44:00,
2013-03-27 13:59:00,58.7,32.0,30.12,WNW,296,5.0,16.0,37,0.00,,,0.00,weatherlink.com 1.10,2013-03-27 17:59:00,
2013-03-27 14:14:00,57.5,33.0,30.12,WNW,296,4.0,13.0,40,0.00,,,0.00,weatherlink.com 1.10,2013-03-27 18:14:00,
2013-03-27 14:29:00,57.2,32.0,30.10,WNW,298,9.0,16.0,38,0.00,,,0.00,weatherlink.com 1.10,2013-03-27 18:29:00,
2013-03-27 14:44:00,57.7,33.0,30.10,WNW,292,13.0,18.0,39,0.00,,,0.00,weatherlink.com 1.10,2013-03-27 18:44:00,
2013-03-27 14:59:00,58.6,33.0,30.09,NW,319,6.0,14.0,38,0.00,,,0.00,weatherlink.com 1.10,2013-03-27 18:59:00,
2013-03-27 15:14:00,58.5,33.0,30.09,NW,318,9.0,15.0,38,0.00,,,0.00,weatherlink.com 1.10,2013-03-27 19:14:00,
2013-03-27 15:29:00,56.2,33.0,30.09,NNW,342,10.0,18.0,41,0.00,,,0.00,weatherlink.com 1.10,2013-03-27 19:29:00,
2013-03-27 15:44:00,57.1,32.0,30.09,North,5,11.0,18.0,39,0.00,,,0.00,weatherlink.com 1.10,2013-03-27 19:44:00,
2013-03-27 15:59:00,57.0,34.0,30.08,NW,310,8.0,19.0,42,0.00,,,0.00,weatherlink.com 1.10,2013-03-27 19:59:00,
2013-03-27 16:14:00,57.0,33.0,30.09,NNW,348,13.0,16.0,41,0.00,,,0.00,weatherlink.com 1.10,2013-03-27 20:14:00,
2013-03-27 16:29:00,57.0,33.0,30.09,WNW,303,12.0,20.0,40,0.00,,,0.00,weatherlink.com 1.10,2013-03-27 20:29:00,
2013-03-27 16:44:00,57.7,34.0,30.09,WNW,296,7.0,15.0,41,0.00,,,0.00,weatherlink.com 1.10,2013-03-27 20:44:00,
2013-03-27 16:59:00,57.1,33.0,30.09,NW,322,16.0,16.0,40,0.00,,,0.00,weatherlink.com 1.10,2013-03-27 20:59:00,
2013-03-27 17:14:00,56.5,34.0,30.09,NNW,340,10.0,14.0,43,0.00,,,0.00,weatherlink.com 1.10,2013-03-27 21:14:00,
2013-03-27 17:29:00,56.0,33.0,30.10,West,276,7.0,16.0,42,0.00,,,0.00,weatherlink.com 1.10,2013-03-27 21:29:00,
2013-03-27 17:44:00,55.0,33.0,30.10,West,278,9.0,14.0,43,0.00,,,0.00,weatherlink.com 1.10,2013-03-27 21:44:00,
2013-03-27 17:59:00,54.2,31.0,30.10,NW,315,6.0,14.0,42,0.00,,,0.00,weatherlink.com 1.10,2013-03-27 21:59:00,
2013-03-27 18:14:00,53.7,33.0,30.10,NW,325,10.0,15.0,46,0.00,,,0.00,weatherlink.com 1.10,2013-03-27 22:14:00,
2013-03-27 18:29:00,53.0,34.0,30.10,NW,317,7.0,12.0,48,0.00,,,0.00,weatherlink.com 1.10,2013-03-27 22:29:00,
2013-03-27 18:44:00,52.7,32.0,30.10,NW,313,3.0,9.0,45,0.00,,,0.00,weatherlink.com 1.10,2013-03-27 22:44:00,
2013-03-27 19:00:00,52.5,34.0,30.11,NW,304,6.0,13.0,49,0.00,,,0.00,weatherlink.com 1.10,2013-03-27 23:00:00,
2013-03-27 19:14:00,51.8,32.0,30.11,WNW,303,5.0,11.0,47,0.00,,,0.00,weatherlink.com 1.10,2013-03-27 23:14:00,
2013-03-27 19:29:00,50.8,32.0,30.12,NW,306,3.0,7.0,48,0.00,,,0.00,weatherlink.com 1.10,2013-03-27 23:29:00,
2013-03-27 19:44:00,49.9,32.0,30.12,WNW,301,3.0,10.0,51,0.00,,,0.00,weatherlink.com 1.10,2013-03-27 23:44:00,
2013-03-27 19:59:00,48.9,32.0,30.13,WNW,301,7.0,8.0,53,0.00,,,0.00,weatherlink.com 1.10,2013-03-27 23:59:00,
2013-03-27 20:14:00,48.0,31.0,30.13,WNW,299,3.0,8.0,53,0.00,,,0.00,weatherlink.com 1.10,2013-03-28 00:14:00,
2013-03-27 20:29:00,47.4,32.0,30.14,NW,305,6.0,8.0,55,0.00,,,0.00,weatherlink.com 1.10,2013-03-28 00:29:00,
2013-03-27 20:44:00,47.1,32.0,30.15,NW,304,6.0,8.0,56,0.00,,,0.00,weatherlink.com 1.10,2013-03-28 00:44:00,
2013-03-27 20:59:00,46.7,32.0,30.16,NW,313,3.0,9.0,57,0.00,,,0.00,weatherlink.com 1.10,2013-03-28 00:59:00,
2013-03-27 21:14:00,46.5,30.0,30.16,WNW,300,4.0,8.0,54,0.00,,,0.00,weatherlink.com 1.10,2013-03-28 01:14:00,
2013-03-27 21:29:00,46.2,31.0,30.16,NW,306,6.0,10.0,55,0.00,,,0.00,weatherlink.com 1.10,2013-03-28 01:29:00,
2013-03-27 21:44:00,46.1,31.0,30.17,NW,304,6.0,9.0,55,0.00,,,0.00,weatherlink.com 1.10,2013-03-28 01:44:00,
2013-03-27 21:59:00,45.4,31.0,30.18,WNW,300,3.0,7.0,58,0.00,,,0.00,weatherlink.com 1.10,2013-03-28 01:59:00,
2013-03-27 22:14:00,45.0,31.0,30.18,WNW,300,8.0,9.0,59,0.00,,,0.00,weatherlink.com 1.10,2013-03-28 02:14:00,
2013-03-27 22:29:00,44.6,30.0,30.18,WNW,295,6.0,10.0,58,0.00,,,0.00,weatherlink.com 1.10,2013-03-28 02:29:00,
2013-03-27 22:44:00,43.9,31.0,30.18,WNW,294,6.0,7.0,60,0.00,,,0.00,weatherlink.com 1.10,2013-03-28 02:44:00,
2013-03-27 22:59:00,43.5,31.0,30.19,WNW,296,7.0,8.0,62,0.00,,,0.00,weatherlink.com 1.10,2013-03-28 02:59:00,
2013-03-27 23:14:00,42.9,31.0,30.19,WNW,300,5.0,8.0,62,0.00,,,0.00,weatherlink.com 1.10,2013-03-28 03:14:00,
2013-03-27 23:30:00,42.7,30.0,30.19,NNW,338,5.0,10.0,61,0.00,,,0.00,weatherlink.com 1.10,2013-03-28 03:30:00,
2013-03-27 23:45:00,43.0,31.0,30.18,NW,312,5.0,8.0,62,0.00,,,0.00,weatherlink.com 1.10,2013-03-28 03:45:00,